createdAt,value
2022-12-01T00:01:23.435Z,13.07
2022-12-01T00:03:51.695Z,13.20
2022-12-01T00:06:21.309Z,14.20
2022-12-01T00:09:09.487Z,13.53
2022-12-01T00:11:39.571Z,11.70
2022-12-01T00:14:07.922Z,11.40
2022-12-01T00:16:36.166Z,11.90
2022-12-01T00:19:04.195Z,11.37
2022-12-01T00:21:32.113Z,12.03
2022-12-01T00:24:00.093Z,11.50
2022-12-01T00:26:28.347Z,10.63
2022-12-01T00:28:58.843Z,10.67
2022-12-01T00:31:28.376Z,11.57
2022-12-01T00:33:56.884Z,12.07
2022-12-01T00:36:25.460Z,15.23
2022-12-01T00:38:54.809Z,14.87
2022-12-01T00:41:24.575Z,13.07
2022-12-01T00:43:52.946Z,12.97
2022-12-01T00:46:22.541Z,14.77
2022-12-01T00:48:50.505Z,14.23
2022-12-01T00:51:18.414Z,15.33
2022-12-01T00:53:47.124Z,15.57
2022-12-01T00:56:15.490Z,15.20
2022-12-01T00:58:43.590Z,16.27
2022-12-01T01:01:11.768Z,15.07
2022-12-01T01:03:41.131Z,14.90
2022-12-01T01:06:11.794Z,14.77
2022-12-01T01:08:40.069Z,13.93
2022-12-01T01:11:09.500Z,13.90
2022-12-01T01:13:38.441Z,14.30
2022-12-01T01:16:09.411Z,15.60
2022-12-01T01:18:37.593Z,14.13
2022-12-01T01:21:09.070Z,14.70
2022-12-01T01:23:37.192Z,14.70
2022-12-01T01:26:06.853Z,14.23
2022-12-01T01:28:34.875Z,14.27
2022-12-01T01:31:06.952Z,14.13
2022-12-01T01:33:35.293Z,13.37
2022-12-01T01:36:04.486Z,14.67
2022-12-01T01:38:34.318Z,13.93
2022-12-01T01:41:03.259Z,15.83
2022-12-01T01:43:44.035Z,14.40
2022-12-01T01:46:14.272Z,14.97
2022-12-01T01:48:44.866Z,15.13
2022-12-01T01:51:15.863Z,15.70
2022-12-01T01:53:47.866Z,14.47
2022-12-01T01:56:15.849Z,14.33
2022-12-01T01:58:45.835Z,14.63
2022-12-01T02:01:13.977Z,15.80
2022-12-01T02:03:43.303Z,14.60
2022-12-01T02:06:12.284Z,15.53
2022-12-01T02:08:40.224Z,15.30
2022-12-01T02:11:49.488Z,15.57
2022-12-01T02:14:34.790Z,13.87
2022-12-01T02:17:10.264Z,15.53
2022-12-01T02:20:07.324Z,15.67
2022-12-01T02:22:54.093Z,15.13
2022-12-01T02:25:50.123Z,15.97
2022-12-01T02:28:45.308Z,15.33
2022-12-01T02:31:17.997Z,16.97
2022-12-01T02:33:55.267Z,16.57
2022-12-01T02:36:33.637Z,15.70
2022-12-01T02:39:08.414Z,16.93
2022-12-01T02:41:41.231Z,14.83
2022-12-01T02:44:16.577Z,14.03
2022-12-01T02:46:50.671Z,13.50
2022-12-01T02:49:22.709Z,13.17
2022-12-01T02:51:53.644Z,12.40
2022-12-01T02:54:23.331Z,11.80
2022-12-01T02:56:54.191Z,12.50
2022-12-01T02:59:22.114Z,10.90
2022-12-01T03:02:02.208Z,12.10
2022-12-01T03:04:54.021Z,13.07
2022-12-01T03:07:43.957Z,12.53
2022-12-01T03:10:19.785Z,11.03
2022-12-01T03:13:03.022Z,12.60
2022-12-01T03:15:37.291Z,11.43
2022-12-01T03:18:19.380Z,11.47
2022-12-01T03:20:55.550Z,10.63
2022-12-01T03:23:26.466Z,10.67
2022-12-01T03:25:56.818Z,10.40
2022-12-01T03:28:30.298Z,9.03
2022-12-01T03:31:02.523Z,9.20
2022-12-01T03:33:36.119Z,8.93
2022-12-01T03:36:08.258Z,9.03
2022-12-01T03:38:38.544Z,8.70
2022-12-01T03:41:10.922Z,8.93
2022-12-01T03:43:44.686Z,8.50
2022-12-01T03:46:18.906Z,9.03
2022-12-01T03:48:48.538Z,9.20
2022-12-01T03:51:23.066Z,8.97
2022-12-01T03:53:58.323Z,8.93
2022-12-01T03:56:31.908Z,9.20
2022-12-01T03:59:04.340Z,9.33
2022-12-01T04:01:33.653Z,8.80
2022-12-01T04:04:08.637Z,8.87
2022-12-01T04:06:36.951Z,9.33
2022-12-01T04:09:05.868Z,9.30
2022-12-01T04:11:51.300Z,9.73
2022-12-01T04:14:19.220Z,9.27
2022-12-01T04:16:47.231Z,8.87
2022-12-01T04:19:16.607Z,9.63
2022-12-01T04:21:44.736Z,9.90
2022-12-01T04:24:13.678Z,9.50
2022-12-01T04:26:42.193Z,9.30
2022-12-01T04:29:12.109Z,10.03
2022-12-01T04:31:40.580Z,10.07
2022-12-01T04:34:08.691Z,9.60
2022-12-01T04:36:38.054Z,9.87
2022-12-01T04:39:06.517Z,10.23
2022-12-01T04:41:34.599Z,10.80
2022-12-01T04:44:02.806Z,10.73
2022-12-01T04:46:30.939Z,10.40
2022-12-01T04:48:59.000Z,10.20
2022-12-01T04:51:27.049Z,10.00
2022-12-01T04:53:58.754Z,10.77
2022-12-01T04:56:27.016Z,9.83
2022-12-01T04:58:55.002Z,8.67
2022-12-01T05:01:23.087Z,10.13
2022-12-01T05:03:51.050Z,9.83
2022-12-01T05:06:21.797Z,10.10
2022-12-01T05:08:50.294Z,10.27
2022-12-01T05:11:20.090Z,11.37
2022-12-01T05:13:50.055Z,9.73
2022-12-01T05:16:20.013Z,10.07
2022-12-01T05:19:13.115Z,10.60
2022-12-01T05:21:41.129Z,10.40
2022-12-01T05:24:10.032Z,10.57
2022-12-01T05:26:39.503Z,11.23
2022-12-01T05:29:07.987Z,11.33
2022-12-01T05:31:36.318Z,10.40
2022-12-01T05:34:04.300Z,9.23
2022-12-01T05:36:33.104Z,13.67
2022-12-01T05:39:01.044Z,12.87
2022-12-01T05:41:29.121Z,11.80
2022-12-01T05:43:58.448Z,12.00
2022-12-01T05:46:26.675Z,12.40
2022-12-01T05:48:54.774Z,11.93
2022-12-01T05:51:22.728Z,11.80
2022-12-01T05:53:50.699Z,11.80
2022-12-01T05:56:18.933Z,11.90
2022-12-01T05:58:46.846Z,13.03
2022-12-01T06:01:16.178Z,12.80
2022-12-01T06:03:44.169Z,11.93
2022-12-01T06:06:12.144Z,12.40
2022-12-01T06:08:40.059Z,12.20
2022-12-01T06:11:08.113Z,13.03
2022-12-01T06:13:36.033Z,12.50
2022-12-01T06:16:07.091Z,12.40
2022-12-01T06:18:38.004Z,11.40
2022-12-01T06:21:07.780Z,12.30
2022-12-01T06:23:35.945Z,12.27
2022-12-01T06:26:03.955Z,11.30
2022-12-01T06:28:32.001Z,11.20
2022-12-01T06:31:03.360Z,11.33
2022-12-01T06:33:31.611Z,15.33
2022-12-01T06:36:01.560Z,12.20
2022-12-01T06:38:32.239Z,12.57
2022-12-01T06:41:00.368Z,11.27
2022-12-01T06:43:28.543Z,12.80
2022-12-01T06:46:01.706Z,12.13
2022-12-01T06:48:30.221Z,12.30
2022-12-01T06:50:58.686Z,12.30
2022-12-01T06:53:28.536Z,13.17
2022-12-01T06:56:01.103Z,13.03
2022-12-01T06:58:29.480Z,13.87
2022-12-01T07:00:58.939Z,12.73
2022-12-01T07:03:27.136Z,12.60
2022-12-01T07:05:59.954Z,12.67
2022-12-01T07:08:30.390Z,13.23
2022-12-01T07:10:59.832Z,12.93
2022-12-01T07:13:33.111Z,11.93
2022-12-01T07:16:02.100Z,16.47
2022-12-01T07:18:30.344Z,12.93
2022-12-01T07:21:01.082Z,13.63
2022-12-01T07:23:30.476Z,13.23
2022-12-01T07:26:02.504Z,14.00
2022-12-01T07:28:30.709Z,13.47
2022-12-01T07:31:06.655Z,13.23
2022-12-01T07:33:35.611Z,13.57
2022-12-01T07:36:04.506Z,13.83
2022-12-01T07:38:35.247Z,14.10
2022-12-01T07:41:04.420Z,14.53
2022-12-01T07:43:32.823Z,13.30
2022-12-01T07:46:06.538Z,12.57
2022-12-01T07:48:34.566Z,13.77
2022-12-01T07:51:03.061Z,13.97
2022-12-01T07:53:30.987Z,13.40
2022-12-01T07:56:04.337Z,13.63
2022-12-01T07:58:36.215Z,13.27
2022-12-01T08:01:08.245Z,13.40
2022-12-01T08:03:36.599Z,13.73
2022-12-01T08:06:06.230Z,12.83
2022-12-01T08:08:35.320Z,13.73
2022-12-01T08:11:07.302Z,13.10
2022-12-01T08:13:35.255Z,13.77
2022-12-01T08:16:04.761Z,13.60
2022-12-01T08:18:32.746Z,13.87
2022-12-01T08:21:00.685Z,13.30
2022-12-01T08:23:28.893Z,13.37
2022-12-01T08:25:57.594Z,12.90
2022-12-01T08:28:27.180Z,13.57
2022-12-01T08:30:55.274Z,14.03
2022-12-01T08:33:24.030Z,15.17
2022-12-01T08:35:51.978Z,22.97
2022-12-01T08:38:19.967Z,14.50
2022-12-01T08:40:47.914Z,16.50
2022-12-01T08:43:41.399Z,17.40
2022-12-01T08:46:05.198Z,18.97
2022-12-01T08:48:33.357Z,15.93
2022-12-01T08:51:09.790Z,14.37
2022-12-01T08:53:45.277Z,15.10
2022-12-01T08:56:17.273Z,15.67
2022-12-01T08:58:45.451Z,15.20
2022-12-01T09:01:17.349Z,14.83
2022-12-01T09:03:45.817Z,18.00
2022-12-01T09:06:16.019Z,15.30
2022-12-01T09:08:44.373Z,16.63
2022-12-01T09:11:15.184Z,15.30
2022-12-01T09:13:44.426Z,14.70
2022-12-01T09:16:16.576Z,15.20
2022-12-01T09:18:46.067Z,18.50
2022-12-01T09:21:16.342Z,53.07
2022-12-01T09:23:44.774Z,19.23
2022-12-01T09:26:18.265Z,14.97
2022-12-01T09:28:46.941Z,14.67
2022-12-01T09:31:18.508Z,15.43
2022-12-01T09:33:46.670Z,15.03
2022-12-01T09:36:15.010Z,15.23
2022-12-01T09:38:43.001Z,16.23
2022-12-01T09:41:26.292Z,17.77
2022-12-01T09:44:02.191Z,23.80
2022-12-01T09:46:42.805Z,16.77
2022-12-01T09:49:18.847Z,17.23
2022-12-01T09:51:47.122Z,18.63
2022-12-01T09:54:15.774Z,16.97
2022-12-01T09:56:46.997Z,18.07
2022-12-01T09:59:22.558Z,15.97
2022-12-01T10:01:56.767Z,15.63
2022-12-01T10:04:29.306Z,17.33
2022-12-01T10:07:01.294Z,16.60
2022-12-01T10:09:41.130Z,18.33
2022-12-01T10:12:15.896Z,17.13
2022-12-01T10:14:46.078Z,28.03
2022-12-01T10:17:25.729Z,20.00
2022-12-01T10:20:02.301Z,16.93
2022-12-01T10:22:46.725Z,16.70
2022-12-01T10:25:22.516Z,17.33
2022-12-01T10:28:13.622Z,15.93
2022-12-01T10:30:50.509Z,17.23
2022-12-01T10:33:25.381Z,15.80
2022-12-01T10:35:54.188Z,16.33
2022-12-01T10:38:28.025Z,15.63
2022-12-01T10:40:59.896Z,16.07
2022-12-01T10:43:35.381Z,14.50
2022-12-01T10:46:22.572Z,14.83
2022-12-01T10:48:57.295Z,14.67
2022-12-01T10:51:26.348Z,17.67
2022-12-01T10:54:00.783Z,16.63
2022-12-01T10:56:29.235Z,14.87
2022-12-01T10:59:00.520Z,17.87
2022-12-01T11:01:32.105Z,27.73
2022-12-01T11:04:07.544Z,25.73
2022-12-01T11:06:36.485Z,26.93
2022-12-01T11:09:07.638Z,15.37
2022-12-01T11:11:38.782Z,20.63
2022-12-01T11:14:34.751Z,20.43
2022-12-01T11:17:17.253Z,17.47
2022-12-01T11:19:46.680Z,15.73
2022-12-01T11:22:22.729Z,14.97
2022-12-01T11:25:05.096Z,19.70
2022-12-01T11:27:36.609Z,28.63
2022-12-01T11:30:09.404Z,17.37
2022-12-01T11:32:41.032Z,14.33
2022-12-01T11:35:19.831Z,17.70
2022-12-01T11:38:27.746Z,15.80
2022-12-01T11:40:49.240Z,16.17
2022-12-01T11:43:26.498Z,18.60
2022-12-01T11:45:57.146Z,16.83
2022-12-01T11:48:29.907Z,14.77
2022-12-01T11:51:16.538Z,15.77
2022-12-01T11:53:45.508Z,14.27
2022-12-01T11:56:20.916Z,15.73
2022-12-01T11:58:51.397Z,14.17
2022-12-01T12:01:33.412Z,14.93
2022-12-01T12:04:15.142Z,16.60
2022-12-01T12:06:53.690Z,18.97
2022-12-01T12:09:44.886Z,14.83
2022-12-01T12:12:26.087Z,13.93
2022-12-01T12:15:05.577Z,15.87
2022-12-01T12:17:59.690Z,15.60
2022-12-01T12:20:38.863Z,13.70
2022-12-01T12:23:24.753Z,16.10
2022-12-01T12:26:04.486Z,15.47
2022-12-01T12:28:53.827Z,18.07
2022-12-01T12:31:29.447Z,15.43
2022-12-01T12:34:36.506Z,16.30
2022-12-01T12:37:17.673Z,18.10
2022-12-01T12:40:05.159Z,16.67
2022-12-01T12:42:40.995Z,14.83
2022-12-01T12:45:20.391Z,14.43
2022-12-01T12:48:02.681Z,15.50
2022-12-01T12:50:44.942Z,18.83
2022-12-01T12:53:19.300Z,17.20
2022-12-01T12:55:52.424Z,17.17
2022-12-01T12:58:24.999Z,18.70
2022-12-01T13:01:01.112Z,16.03
2022-12-01T13:03:42.993Z,16.07
2022-12-01T13:06:21.447Z,22.60
2022-12-01T13:08:54.320Z,16.27
2022-12-01T13:11:29.216Z,16.87
2022-12-01T13:14:03.749Z,17.97
2022-12-01T13:16:36.774Z,20.07
2022-12-01T13:19:13.244Z,18.60
2022-12-01T13:21:44.817Z,22.27
2022-12-01T13:24:21.322Z,16.47
2022-12-01T13:26:58.828Z,26.03
2022-12-01T13:29:28.417Z,31.93
2022-12-01T13:31:56.574Z,19.93
2022-12-01T13:34:30.695Z,19.40
2022-12-01T13:36:58.748Z,18.10
2022-12-01T13:39:28.914Z,16.97
2022-12-01T13:42:07.741Z,19.73
2022-12-01T13:44:41.825Z,18.90
2022-12-01T13:47:32.566Z,17.90
2022-12-01T13:50:33.325Z,18.70
2022-12-01T13:53:12.004Z,20.17
2022-12-01T13:55:58.021Z,18.30
2022-12-01T13:58:44.035Z,17.73
2022-12-01T14:01:44.103Z,15.93
2022-12-01T14:04:30.380Z,16.23
2022-12-01T14:07:36.067Z,21.03
2022-12-01T14:10:25.383Z,19.60
2022-12-01T14:12:56.953Z,17.03
2022-12-01T14:15:36.053Z,20.33
2022-12-01T14:18:08.170Z,21.87
2022-12-01T14:20:44.780Z,21.63
2022-12-01T14:23:17.397Z,19.23
2022-12-01T14:26:00.116Z,19.73
2022-12-01T14:29:10.209Z,19.07
2022-12-01T14:32:06.741Z,25.63
2022-12-01T14:34:35.950Z,23.30
2022-12-01T14:37:08.392Z,23.87
2022-12-01T14:39:39.291Z,21.37
2022-12-01T14:42:53.451Z,22.40
2022-12-01T14:45:27.079Z,21.83
2022-12-01T14:48:04.109Z,29.00
2022-12-01T14:50:46.167Z,23.50
2022-12-01T14:53:23.664Z,25.57
2022-12-01T14:55:57.665Z,22.17
2022-12-01T14:58:28.864Z,26.83
2022-12-01T15:01:05.111Z,22.17
2022-12-01T15:03:39.433Z,29.10
2022-12-01T15:06:08.757Z,31.77
2022-12-01T15:08:43.702Z,26.23
2022-12-01T15:11:22.887Z,24.47
2022-12-01T15:13:53.018Z,21.17
2022-12-01T15:16:22.831Z,22.00
2022-12-01T15:18:53.200Z,22.07
2022-12-01T15:21:23.859Z,26.90
2022-12-01T15:23:57.578Z,31.67
2022-12-01T15:26:29.866Z,34.40
2022-12-01T15:29:15.730Z,37.83
2022-12-01T15:31:44.810Z,23.80
2022-12-01T15:34:18.365Z,21.80
2022-12-01T15:36:47.260Z,23.97
2022-12-01T15:39:18.068Z,51.70
2022-12-01T15:41:48.439Z,33.50
2022-12-01T15:44:27.405Z,28.93
2022-12-01T15:46:55.624Z,28.13
2022-12-01T15:49:29.895Z,23.83
2022-12-01T15:52:08.376Z,31.27
2022-12-01T15:54:38.695Z,23.23
2022-12-01T15:57:07.234Z,24.90
2022-12-01T15:59:40.398Z,27.23
2022-12-01T16:02:32.980Z,18.63
2022-12-01T16:05:05.205Z,20.70
2022-12-01T16:08:11.693Z,18.33
2022-12-01T16:10:30.995Z,23.53
2022-12-01T16:13:36.236Z,22.70
2022-12-01T16:16:30.029Z,21.17
2022-12-01T16:18:59.935Z,21.50
2022-12-01T16:21:31.923Z,28.57
2022-12-01T16:24:02.203Z,25.30
2022-12-01T16:26:30.938Z,21.43
2022-12-01T16:28:59.570Z,20.40
2022-12-01T16:31:28.650Z,19.57
2022-12-01T16:34:18.583Z,24.33
2022-12-01T16:36:53.985Z,23.00
2022-12-01T16:39:21.875Z,21.27
2022-12-01T16:41:50.109Z,22.10
2022-12-01T16:44:28.538Z,23.40
2022-12-01T16:46:57.723Z,23.77
2022-12-01T16:49:26.445Z,22.70
2022-12-01T16:51:57.387Z,23.90
2022-12-01T16:54:26.639Z,23.70
2022-12-01T16:56:54.586Z,22.87
2022-12-01T16:59:22.496Z,22.27
2022-12-01T17:01:50.488Z,23.37
2022-12-01T17:04:18.432Z,21.50
2022-12-01T17:06:46.482Z,23.47
2022-12-01T17:09:15.756Z,28.73
2022-12-01T17:11:43.715Z,23.70
2022-12-01T17:14:12.132Z,21.60
2022-12-01T17:16:40.170Z,27.57
2022-12-01T17:19:08.161Z,22.10
2022-12-01T17:21:36.060Z,24.50
2022-12-01T17:24:04.485Z,23.80
2022-12-01T17:26:33.960Z,22.13
2022-12-01T17:29:02.208Z,23.50
2022-12-01T17:31:30.297Z,21.87
2022-12-01T17:33:58.355Z,24.17
2022-12-01T17:36:26.307Z,27.43
2022-12-01T17:38:54.231Z,23.70
2022-12-01T17:41:24.839Z,24.43
2022-12-01T17:43:54.506Z,25.80
2022-12-01T17:46:23.363Z,26.37
2022-12-01T17:48:51.605Z,23.60
2022-12-01T17:51:19.760Z,21.93
2022-12-01T17:53:47.778Z,25.97
2022-12-01T17:56:17.998Z,25.57
2022-12-01T17:58:45.965Z,20.97
2022-12-01T18:01:17.872Z,22.73
2022-12-01T18:03:46.404Z,22.30
2022-12-01T18:06:15.502Z,23.23
2022-12-01T18:08:44.221Z,22.57
2022-12-01T18:11:14.354Z,32.63
2022-12-01T18:13:44.544Z,19.23
2022-12-01T18:16:16.898Z,21.57
2022-12-01T18:18:45.354Z,21.73
2022-12-01T18:21:15.445Z,19.33
2022-12-01T18:23:49.000Z,21.73
2022-12-01T18:26:16.941Z,22.23
2022-12-01T18:28:45.270Z,20.80
2022-12-01T18:31:17.239Z,21.17
2022-12-01T18:33:46.124Z,20.27
2022-12-01T18:36:16.654Z,20.17
2022-12-01T18:38:44.622Z,18.87
2022-12-01T18:41:12.506Z,23.57
2022-12-01T18:43:40.984Z,23.57
2022-12-01T18:46:10.037Z,24.13
2022-12-01T18:48:39.707Z,21.43
2022-12-01T18:51:09.391Z,23.93
2022-12-01T18:53:37.677Z,23.80
2022-12-01T18:56:08.355Z,19.47
2022-12-01T18:58:37.443Z,21.77
2022-12-01T19:01:17.966Z,18.87
2022-12-01T19:03:47.500Z,19.03
2022-12-01T19:06:15.933Z,23.40
2022-12-01T19:08:43.894Z,20.07
2022-12-01T19:11:14.964Z,21.13
2022-12-01T19:13:42.981Z,22.10
2022-12-01T19:16:13.184Z,24.50
2022-12-01T19:18:41.847Z,23.00
2022-12-01T19:21:13.479Z,22.60
2022-12-01T19:23:42.184Z,36.17
2022-12-01T19:26:13.850Z,31.10
2022-12-01T19:28:45.576Z,26.23
2022-12-01T19:31:17.176Z,26.40
2022-12-01T19:33:45.117Z,24.63
2022-12-01T19:36:19.401Z,22.23
2022-12-01T19:38:47.416Z,23.07
2022-12-01T19:41:16.069Z,26.40
2022-12-01T19:43:44.189Z,27.17
2022-12-01T19:46:14.751Z,24.67
2022-12-01T19:48:43.436Z,33.57
2022-12-01T19:51:19.854Z,27.70
2022-12-01T19:53:47.964Z,29.43
2022-12-01T19:56:15.972Z,26.87
2022-12-01T19:58:44.017Z,32.23
2022-12-01T20:01:14.497Z,23.00
2022-12-01T20:03:43.391Z,21.13
2022-12-01T20:06:13.053Z,19.77
2022-12-01T20:08:43.219Z,18.83
2022-12-01T20:11:13.287Z,18.60
2022-12-01T20:13:43.778Z,24.37
2022-12-01T20:16:14.654Z,20.83
2022-12-01T20:18:43.331Z,29.57
2022-12-01T20:21:16.386Z,27.70
2022-12-01T20:23:47.745Z,20.50
2022-12-01T20:26:17.010Z,17.80
2022-12-01T20:28:45.907Z,19.87
2022-12-01T20:31:16.276Z,19.23
2022-12-01T20:33:44.655Z,20.27
2022-12-01T20:36:14.497Z,22.13
2022-12-01T20:38:42.876Z,19.13
2022-12-01T20:41:13.300Z,20.43
2022-12-01T20:43:41.928Z,19.80
2022-12-01T20:46:10.215Z,20.73
2022-12-01T20:48:38.232Z,19.27
2022-12-01T20:51:09.825Z,20.13
2022-12-01T20:53:37.865Z,20.63
2022-12-01T20:56:08.594Z,23.33
2022-12-01T20:58:38.988Z,25.53
2022-12-01T21:01:11.445Z,26.07
2022-12-01T21:03:44.420Z,76.03
2022-12-01T21:06:14.697Z,20.43
2022-12-01T21:08:44.756Z,24.40
2022-12-01T21:11:18.995Z,20.80
2022-12-01T21:13:47.692Z,22.20
2022-12-01T21:16:23.440Z,46.30
2022-12-01T21:18:53.609Z,36.03
2022-12-01T21:21:25.277Z,43.77
2022-12-01T21:24:11.141Z,24.43
2022-12-01T21:26:42.161Z,20.87
2022-12-01T21:29:20.524Z,23.33
2022-12-01T21:31:51.888Z,21.90
2022-12-01T21:34:22.345Z,21.07
2022-12-01T21:36:51.747Z,21.83
2022-12-01T21:39:22.476Z,25.83
2022-12-01T21:41:52.348Z,23.83
2022-12-01T21:44:23.935Z,21.80
2022-12-01T21:46:57.578Z,22.73
2022-12-01T21:49:37.440Z,24.27
2022-12-01T21:52:13.513Z,25.67
2022-12-01T21:54:41.535Z,23.63
2022-12-01T21:57:30.840Z,27.67
2022-12-01T22:00:24.971Z,24.10
2022-12-01T22:02:59.664Z,22.50
2022-12-01T22:05:32.557Z,23.00
2022-12-01T22:08:09.047Z,23.23
2022-12-01T22:10:56.915Z,26.80
2022-12-01T22:13:27.155Z,26.63
2022-12-01T22:15:57.956Z,27.73
2022-12-01T22:18:33.253Z,29.27
2022-12-01T22:21:02.551Z,22.83
2022-12-01T22:23:34.248Z,20.27
2022-12-01T22:26:02.672Z,19.13
2022-12-01T22:28:30.707Z,19.23
2022-12-01T22:31:00.167Z,22.20
2022-12-01T22:33:34.463Z,21.20
2022-12-01T22:36:02.476Z,21.70
2022-12-01T22:38:36.720Z,20.77
2022-12-01T22:41:06.913Z,20.47
2022-12-01T22:43:45.410Z,20.80
2022-12-01T22:46:32.721Z,21.17
2022-12-01T22:49:04.264Z,27.60
2022-12-01T22:51:38.269Z,20.53
2022-12-01T22:54:25.708Z,25.67
2022-12-01T22:57:06.976Z,21.43
2022-12-01T22:59:37.525Z,21.53
2022-12-01T23:02:20.970Z,20.33
2022-12-01T23:04:56.942Z,27.53
2022-12-01T23:07:31.428Z,20.97
2022-12-01T23:10:05.757Z,21.30
2022-12-01T23:12:43.718Z,22.13
2022-12-01T23:15:34.033Z,27.43
2022-12-01T23:18:12.726Z,24.27
2022-12-01T23:20:42.336Z,24.83
2022-12-01T23:23:14.945Z,22.03
2022-12-01T23:25:43.994Z,19.53
2022-12-01T23:28:14.176Z,21.43
2022-12-01T23:30:46.326Z,22.07
2022-12-01T23:33:22.295Z,23.47
2022-12-01T23:35:54.961Z,22.27
2022-12-01T23:38:25.674Z,23.33
2022-12-01T23:40:56.808Z,22.80
2022-12-01T23:43:26.732Z,21.37
2022-12-01T23:46:03.435Z,20.30
2022-12-01T23:48:35.973Z,20.23
2022-12-01T23:51:03.985Z,19.07
2022-12-01T23:53:33.908Z,18.83
2022-12-01T23:56:06.683Z,20.00
2022-12-01T23:58:35.439Z,19.03
